createdAt,value
2022-07-30T00:00:24.906Z,16.10
2022-07-30T00:03:13.049Z,16.00
2022-07-30T00:06:01.831Z,16.00
2022-07-30T00:08:49.168Z,16.00
2022-07-30T00:11:36.849Z,16.00
2022-07-30T00:14:24.584Z,16.00
2022-07-30T00:17:12.181Z,16.10
2022-07-30T00:19:59.756Z,16.10
2022-07-30T00:22:48.844Z,16.20
2022-07-30T00:25:36.101Z,16.20
2022-07-30T00:28:23.412Z,16.30
2022-07-30T00:31:12.092Z,16.30
2022-07-30T00:33:59.574Z,16.40
2022-07-30T00:36:47.247Z,16.40
2022-07-30T00:39:36.064Z,16.40
2022-07-30T00:42:25.887Z,16.40
2022-07-30T00:45:14.328Z,16.40
2022-07-30T00:48:01.820Z,16.40
2022-07-30T00:50:49.413Z,16.30
2022-07-30T00:53:37.876Z,16.30
2022-07-30T00:56:26.725Z,16.40
2022-07-30T00:59:14.222Z,16.30
2022-07-30T01:02:01.899Z,16.30
2022-07-30T01:04:49.383Z,16.30
2022-07-30T01:07:40.218Z,16.30
2022-07-30T01:10:27.496Z,16.40
2022-07-30T01:13:17.541Z,16.40
2022-07-30T01:16:05.644Z,16.40
2022-07-30T01:19:11.494Z,16.40
2022-07-30T01:22:03.974Z,16.40
2022-07-30T01:24:55.152Z,16.40
2022-07-30T01:27:45.247Z,16.40
2022-07-30T01:30:34.813Z,16.40
2022-07-30T01:33:24.290Z,16.40
2022-07-30T01:36:14.258Z,16.50
2022-07-30T01:39:02.509Z,16.50
2022-07-30T01:41:52.080Z,16.50
2022-07-30T01:44:41.751Z,16.50
2022-07-30T01:47:29.989Z,16.60
2022-07-30T01:50:17.502Z,16.60
2022-07-30T01:53:06.682Z,16.60
2022-07-30T01:55:54.858Z,16.60
2022-07-30T01:58:43.360Z,16.60
2022-07-30T02:01:46.324Z,16.60
2022-07-30T02:04:34.158Z,16.70
2022-07-30T02:07:25.802Z,16.70
2022-07-30T02:10:14.552Z,16.80
2022-07-30T02:13:06.759Z,16.80
2022-07-30T02:15:57.252Z,16.80
2022-07-30T02:18:49.627Z,16.80
2022-07-30T02:21:39.273Z,16.90
2022-07-30T02:24:38.704Z,16.90
2022-07-30T02:27:28.548Z,16.90
2022-07-30T02:30:16.492Z,16.90
2022-07-30T02:33:06.031Z,16.90
2022-07-30T02:35:55.618Z,16.90
2022-07-30T02:38:44.956Z,17.00
2022-07-30T02:41:34.093Z,17.00
2022-07-30T02:44:22.709Z,17.00
2022-07-30T02:47:10.466Z,16.90
2022-07-30T02:50:13.946Z,16.90
2022-07-30T02:53:03.272Z,16.90
2022-07-30T02:55:51.162Z,16.90
2022-07-30T02:58:39.271Z,16.90
2022-07-30T03:01:27.735Z,16.90
2022-07-30T03:04:15.815Z,16.90
2022-07-30T03:07:08.115Z,16.90
2022-07-30T03:09:57.830Z,17.00
2022-07-30T03:12:46.839Z,17.00
2022-07-30T03:15:34.853Z,17.00
2022-07-30T03:18:29.093Z,17.00
2022-07-30T03:21:18.656Z,17.00
2022-07-30T03:24:07.739Z,17.00
2022-07-30T03:26:58.014Z,17.00
2022-07-30T03:29:46.726Z,17.00
2022-07-30T03:32:35.497Z,17.10
2022-07-30T03:35:25.041Z,17.00
2022-07-30T03:38:15.828Z,17.10
2022-07-30T03:41:03.566Z,17.10
2022-07-30T03:43:52.429Z,17.10
2022-07-30T03:46:41.671Z,17.20
2022-07-30T03:49:30.513Z,17.20
2022-07-30T03:52:18.637Z,17.20
2022-07-30T03:55:08.010Z,17.20
2022-07-30T03:58:11.783Z,17.20
2022-07-30T04:01:00.856Z,17.20
2022-07-30T04:03:48.587Z,17.30
2022-07-30T04:06:39.695Z,17.30
2022-07-30T04:09:27.261Z,17.30
2022-07-30T04:12:15.258Z,17.40
2022-07-30T04:15:03.387Z,17.40
2022-07-30T04:18:13.278Z,17.40
2022-07-30T04:21:01.037Z,17.50
2022-07-30T04:24:03.909Z,17.50
2022-07-30T04:26:54.141Z,17.50
2022-07-30T04:29:41.991Z,17.60
2022-07-30T04:32:29.830Z,17.60
2022-07-30T04:35:50.859Z,17.70
2022-07-30T04:39:06.134Z,17.80
2022-07-30T04:41:53.813Z,17.80
2022-07-30T04:44:56.417Z,17.90
2022-07-30T04:47:56.425Z,17.90
2022-07-30T04:51:04.356Z,18.00
2022-07-30T04:53:53.567Z,18.10
2022-07-30T04:56:42.116Z,18.10
2022-07-30T04:59:41.643Z,18.20
2022-07-30T05:02:31.171Z,18.30
2022-07-30T05:05:20.102Z,18.40
2022-07-30T05:08:09.747Z,18.50
2022-07-30T05:10:57.312Z,18.50
2022-07-30T05:13:46.285Z,18.50
2022-07-30T05:16:35.198Z,18.60
2022-07-30T05:19:23.822Z,18.60
2022-07-30T05:22:11.289Z,18.70
2022-07-30T05:25:00.607Z,18.70
2022-07-30T05:27:48.009Z,18.70
2022-07-30T05:30:35.325Z,18.80
2022-07-30T05:33:23.167Z,18.80
2022-07-30T05:36:30.768Z,18.80
2022-07-30T05:39:18.115Z,18.90
2022-07-30T05:42:38.847Z,18.90
2022-07-30T05:45:28.891Z,19.00
2022-07-30T05:48:16.482Z,19.00
2022-07-30T05:51:04.832Z,19.00
2022-07-30T05:53:52.324Z,19.00
2022-07-30T05:57:06.115Z,19.10
2022-07-30T05:59:57.162Z,19.10
2022-07-30T06:02:51.917Z,19.20
2022-07-30T06:05:59.571Z,19.20
2022-07-30T06:08:47.297Z,19.30
2022-07-30T06:11:34.728Z,19.30
2022-07-30T06:14:22.528Z,19.40
2022-07-30T06:17:11.472Z,19.50
2022-07-30T06:20:19.024Z,19.60
2022-07-30T06:23:18.251Z,19.70
2022-07-30T06:26:38.340Z,19.80
2022-07-30T06:33:25.183Z,19.90
2022-07-30T06:36:14.118Z,20.00
2022-07-30T06:39:55.842Z,20.10
2022-07-30T06:42:44.924Z,20.10
2022-07-30T06:45:50.911Z,20.10
2022-07-30T06:48:45.972Z,20.20
2022-07-30T06:51:33.541Z,20.30
2022-07-30T06:54:21.122Z,20.40
2022-07-30T06:57:20.223Z,20.50
2022-07-30T07:00:08.934Z,20.60
2022-07-30T07:02:59.248Z,20.60
2022-07-30T07:05:57.011Z,20.60
2022-07-30T07:08:44.636Z,20.60
2022-07-30T07:11:34.987Z,20.50
2022-07-30T07:14:28.038Z,20.50
2022-07-30T07:17:15.577Z,20.50
2022-07-30T07:20:35.700Z,20.40
2022-07-30T07:23:41.416Z,20.50
2022-07-30T07:26:35.638Z,20.60
2022-07-30T07:29:22.996Z,20.70
2022-07-30T07:32:10.329Z,20.70
2022-07-30T07:34:58.916Z,20.70
2022-07-30T07:37:46.860Z,20.80
2022-07-30T07:40:42.187Z,20.80
2022-07-30T07:43:29.823Z,20.90
2022-07-30T07:46:33.979Z,21.10
2022-07-30T07:49:22.421Z,21.10
2022-07-30T07:52:11.851Z,21.20
2022-07-30T07:54:59.402Z,21.30
2022-07-30T07:57:51.031Z,21.40
2022-07-30T08:00:38.458Z,21.40
2022-07-30T08:03:25.611Z,21.40
2022-07-30T08:06:15.264Z,21.50
2022-07-30T08:09:44.355Z,21.60
2022-07-30T08:12:58.824Z,21.70
2022-07-30T08:16:08.203Z,21.70
2022-07-30T08:19:18.301Z,21.60
2022-07-30T08:22:13.996Z,21.70
2022-07-30T08:25:01.369Z,21.80
2022-07-30T08:27:51.027Z,21.80
2022-07-30T08:30:41.171Z,21.90
2022-07-30T08:33:28.394Z,21.90
2022-07-30T08:36:16.191Z,22.00
2022-07-30T08:39:03.814Z,22.00
2022-07-30T08:41:51.604Z,21.90
2022-07-30T08:44:38.976Z,21.80
2022-07-30T08:47:29.504Z,21.80
2022-07-30T08:50:32.168Z,21.80
2022-07-30T08:53:39.478Z,21.60
2022-07-30T08:56:27.599Z,21.60
2022-07-30T08:59:14.936Z,21.80
2022-07-30T09:02:02.392Z,22.00
2022-07-30T09:04:51.836Z,22.30
2022-07-30T09:07:39.537Z,22.50
2022-07-30T09:10:30.638Z,22.40
2022-07-30T09:13:24.238Z,22.50
2022-07-30T09:16:20.446Z,22.40
2022-07-30T09:19:15.830Z,22.20
2022-07-30T09:22:04.358Z,21.90
2022-07-30T09:25:11.436Z,21.60
2022-07-30T09:28:31.621Z,21.60
2022-07-30T09:31:48.717Z,21.40
2022-07-30T09:34:56.223Z,21.30
2022-07-30T09:38:11.417Z,21.40
2022-07-30T09:41:40.698Z,21.30
2022-07-30T09:44:33.325Z,21.20
2022-07-30T09:47:38.382Z,20.90
2022-07-30T09:50:30.090Z,20.80
2022-07-30T09:53:22.375Z,20.70
2022-07-30T09:56:24.968Z,20.60
2022-07-30T09:59:26.814Z,20.40
2022-07-30T10:02:22.780Z,20.20
2022-07-30T10:05:40.425Z,20.10
2022-07-30T10:08:40.772Z,20.00
2022-07-30T10:11:31.085Z,19.90
2022-07-30T10:14:23.943Z,19.80
2022-07-30T10:17:18.855Z,19.90
2022-07-30T10:20:18.906Z,20.10
2022-07-30T10:23:29.561Z,20.20
2022-07-30T10:27:00.700Z,20.40
2022-07-30T10:30:13.839Z,20.40
2022-07-30T10:33:02.198Z,20.20
2022-07-30T10:35:49.883Z,20.10
2022-07-30T10:38:41.697Z,19.90
2022-07-30T10:41:44.360Z,19.60
2022-07-30T10:44:48.656Z,19.50
2022-07-30T10:47:45.008Z,19.30
2022-07-30T10:50:49.583Z,19.10
2022-07-30T10:53:37.769Z,19.00
2022-07-30T10:56:26.971Z,19.10
2022-07-30T10:59:16.429Z,19.20
2022-07-30T11:02:11.300Z,19.30
2022-07-30T11:05:15.094Z,19.30
2022-07-30T11:08:18.190Z,19.30
2022-07-30T11:11:19.571Z,19.30
2022-07-30T11:14:07.793Z,19.20
2022-07-30T11:17:02.036Z,19.20
2022-07-30T11:20:04.536Z,19.30
2022-07-30T11:22:53.991Z,19.40
2022-07-30T11:25:51.590Z,19.60
2022-07-30T11:28:43.091Z,19.40
2022-07-30T11:31:48.673Z,19.30
2022-07-30T11:34:41.090Z,19.30
2022-07-30T11:37:32.025Z,19.30
2022-07-30T11:40:26.204Z,19.30
2022-07-30T11:43:18.172Z,19.40
2022-07-30T11:46:07.182Z,19.40
2022-07-30T11:48:58.753Z,19.40
2022-07-30T11:51:46.890Z,19.20
2022-07-30T11:54:34.069Z,19.30
2022-07-30T11:57:22.369Z,19.30
2022-07-30T12:00:11.262Z,19.20
2022-07-30T12:03:08.117Z,19.30
2022-07-30T12:05:55.976Z,19.30
2022-07-30T12:08:44.183Z,19.20
2022-07-30T12:11:33.090Z,19.20
2022-07-30T12:14:21.594Z,19.10
2022-07-30T12:17:15.137Z,19.10
2022-07-30T12:20:02.841Z,19.20
2022-07-30T12:22:50.001Z,19.20
2022-07-30T12:25:38.892Z,19.10
2022-07-30T12:28:35.621Z,19.10
2022-07-30T12:31:24.464Z,19.00
2022-07-30T12:34:21.716Z,19.10
2022-07-30T12:37:09.959Z,19.20
2022-07-30T12:40:15.010Z,19.20
2022-07-30T12:43:02.457Z,19.20
2022-07-30T12:45:50.425Z,19.30
2022-07-30T12:48:50.856Z,19.30
2022-07-30T12:51:50.900Z,19.40
2022-07-30T12:54:37.899Z,19.40
2022-07-30T12:57:25.453Z,19.30
2022-07-30T13:00:13.516Z,19.30
2022-07-30T13:03:00.715Z,19.20
2022-07-30T13:05:50.526Z,19.20
2022-07-30T13:08:48.060Z,19.10
2022-07-30T13:11:40.237Z,19.10
2022-07-30T13:14:27.341Z,19.10
2022-07-30T13:17:15.072Z,19.00
2022-07-30T13:20:02.765Z,19.00
2022-07-30T13:22:51.622Z,19.00
2022-07-30T13:25:40.565Z,18.90
2022-07-30T13:28:27.999Z,18.80
2022-07-30T13:31:15.241Z,18.80
2022-07-30T13:34:03.249Z,18.70
2022-07-30T13:36:50.552Z,18.70
2022-07-30T13:39:38.903Z,18.60
2022-07-30T13:42:26.525Z,18.50
2022-07-30T13:45:13.905Z,18.50
2022-07-30T13:48:01.181Z,18.50
2022-07-30T13:50:48.634Z,18.40
2022-07-30T13:53:35.750Z,18.40
2022-07-30T13:56:24.091Z,18.40
2022-07-30T13:59:11.785Z,18.40
2022-07-30T14:02:00.439Z,18.40
2022-07-30T14:04:47.941Z,18.40
2022-07-30T14:07:35.435Z,18.30
2022-07-30T14:10:23.205Z,18.20
2022-07-30T14:13:19.408Z,18.30
2022-07-30T14:16:28.536Z,18.20
2022-07-30T14:19:24.159Z,18.20
2022-07-30T14:22:11.995Z,18.10
2022-07-30T14:25:00.218Z,18.10
2022-07-30T14:27:48.176Z,18.10
2022-07-30T14:30:37.467Z,18.10
2022-07-30T14:33:24.949Z,18.10
2022-07-30T14:36:12.846Z,18.10
2022-07-30T14:39:01.896Z,18.10
2022-07-30T14:41:52.419Z,18.10
2022-07-30T14:44:43.534Z,18.10
2022-07-30T14:47:32.482Z,18.00
2022-07-30T14:50:19.984Z,18.00
2022-07-30T14:53:07.356Z,17.90
2022-07-30T14:55:54.827Z,17.90
2022-07-30T14:58:42.249Z,17.80
2022-07-30T15:01:29.648Z,17.80
2022-07-30T15:04:18.520Z,17.70
2022-07-30T15:07:06.891Z,17.70
2022-07-30T15:09:54.490Z,17.60
2022-07-30T15:12:41.581Z,17.50
2022-07-30T15:15:32.152Z,17.40
2022-07-30T15:18:25.381Z,17.40
2022-07-30T15:21:14.206Z,17.40
2022-07-30T15:24:01.485Z,17.30
2022-07-30T15:26:48.918Z,17.30
2022-07-30T15:29:36.307Z,17.30
2022-07-30T15:32:23.489Z,17.30
2022-07-30T15:35:13.561Z,17.30
2022-07-30T15:38:02.871Z,17.30
2022-07-30T15:40:50.261Z,17.20
2022-07-30T15:43:38.239Z,17.20
2022-07-30T15:46:25.481Z,17.20
2022-07-30T15:49:13.045Z,17.20
2022-07-30T15:52:00.949Z,17.10
2022-07-30T15:54:49.915Z,17.10
2022-07-30T15:57:37.351Z,17.10
2022-07-30T16:00:24.822Z,17.10
2022-07-30T16:03:12.325Z,17.00
2022-07-30T16:22:08.272Z,17.00
2022-07-30T20:11:36.986Z,16.40
2022-07-30T20:14:24.733Z,16.40
2022-07-30T20:17:12.821Z,16.40
2022-07-30T20:20:03.277Z,16.40
2022-07-30T20:22:54.072Z,16.40
2022-07-30T20:25:42.053Z,16.40
2022-07-30T20:28:30.837Z,16.40
2022-07-30T20:31:18.466Z,16.40
2022-07-30T20:34:06.416Z,16.30
2022-07-30T20:37:15.100Z,16.30
2022-07-30T20:40:10.944Z,16.30
2022-07-30T20:46:11.975Z,16.30
2022-07-30T20:49:00.006Z,16.30
2022-07-30T20:51:50.343Z,16.30
2022-07-30T20:54:43.680Z,16.30
2022-07-30T20:57:44.399Z,16.30
2022-07-30T21:00:41.706Z,16.20
2022-07-30T21:03:30.570Z,16.20
2022-07-30T21:06:18.237Z,16.20
2022-07-30T21:09:06.024Z,16.20
2022-07-30T21:11:53.534Z,16.20
2022-07-30T21:14:41.018Z,16.20
2022-07-30T21:17:36.412Z,16.20
2022-07-30T21:20:28.091Z,16.20
2022-07-30T21:26:27.671Z,16.10
2022-07-30T21:29:15.886Z,16.10
2022-07-30T21:32:03.592Z,16.10
2022-07-30T21:34:51.894Z,16.00
2022-07-30T21:37:43.023Z,16.00
2022-07-30T21:40:31.097Z,16.00
2022-07-30T21:43:29.693Z,16.00
2022-07-30T21:46:25.178Z,16.00
2022-07-30T21:49:14.434Z,16.00
2022-07-30T22:30:39.756Z,15.80
2022-07-30T22:33:27.997Z,15.80
2022-07-30T22:36:19.910Z,15.80
2022-07-30T22:39:12.982Z,15.80
2022-07-30T22:42:01.586Z,15.80
2022-07-30T22:44:49.806Z,15.80
2022-07-30T22:47:54.428Z,15.80
2022-07-30T22:50:43.188Z,15.80
2022-07-30T22:54:02.542Z,15.80
2022-07-30T22:56:39.402Z,15.80
2022-07-30T22:59:57.711Z,15.90
2022-07-30T23:02:34.889Z,15.90
2022-07-30T23:05:23.719Z,15.80
2022-07-30T23:08:12.650Z,15.80
2022-07-30T23:11:01.113Z,15.80
2022-07-30T23:12:19.012Z,16.30
2022-07-30T23:12:31.540Z,16.10
2022-07-30T23:13:53.824Z,15.80
2022-07-30T23:16:43.016Z,15.80
2022-07-30T23:19:37.956Z,15.80
2022-07-30T23:22:28.525Z,15.80
2022-07-30T23:25:16.195Z,15.80
2022-07-30T23:28:03.963Z,15.80
2022-07-30T23:30:51.853Z,15.90
2022-07-30T23:33:39.471Z,15.90
2022-07-30T23:36:27.458Z,15.90
2022-07-30T23:39:16.217Z,15.90
2022-07-30T23:42:03.996Z,15.90
2022-07-30T23:44:51.951Z,15.90
2022-07-30T23:48:01.842Z,15.90
2022-07-30T23:50:47.645Z,15.90
2022-07-30T23:53:35.358Z,15.90
2022-07-30T23:56:24.030Z,15.90
2022-07-30T23:59:11.748Z,15.90
